Flight Track Log - Related Links

Times and Time Zones

All times are in EDT time to prevent confusion due to time zone crossing. See the AWE1840 flight status page for this flight to view local times or setup timezone preferences in your user account.

Time Position Orientation Groundspeed Altitude Reporting Facility
EDT Latitude Longitude Course Direction KTS MPH feet Rate Location/Type
Sun 03:13:09 PM 42.7744 -73.8053 143° Southeast 170 196 1,700  Level Boston Center
Sun 03:13:52 PM 42.8078 -73.8222 340° North 193 222 3,100 1,971 Climbing Boston Center
Sun 03:14:19 PM 42.8217 -73.8439 311° West 201 231 4,000 2,966 Climbing Boston Center
Sun 03:15:00 PM 42.5461 -74.0226 170° South  Level Estimated
Sun 03:15:19 PM 42.8631 -73.9122 310° West 218 251 7,400  Level Boston Center
Sun 03:16:00 PM 42.4761 -73.9535 144° Southeast  Level FlightAware Approximate
Sun 03:16:23 PM 42.9022 -73.9736 311° West 215 247 10,400  Level Boston Center
Sun 03:17:00 PM 42.4088 -74.0275 169° South  Level Estimated
Sun 03:17:24 PM 42.9419 -74.0339 312° West 214 246 13,100  Level Boston Center
Sun 03:18:00 PM 42.3395 -73.9574 143° Southeast  Level FlightAware Approximate
Sun 03:18:24 PM 42.9533 -74.1119 281° West 225 259 15,300  Level Boston Center
Sun 03:19:25 PM 42.9233 -74.1881 242° Southwest 228 262 17,800 1,920 Climbing Boston Center
Sun 03:20:29 PM 42.8589 -74.2075 192° South 271 312 19,300 1,065 Climbing Boston Center
Sun 03:21:29 PM 42.7719 -74.1444 152° Southeast 345 397 20,000 800 Climbing Boston Center
Sun 03:22:29 PM 42.6692 -74.0875 158° South 388 447 20,900 1,248 Climbing Boston Center
Sun 03:23:34 PM 42.5639 -74.0319 159° South 429 494 22,600 1,667 Climbing Boston Center
Sun 03:24:35 PM 42.4528 -73.9711 158° South 433 498 24,400 1,672 Climbing Boston Center
Sun 03:25:36 PM 42.3156 -73.8950 158° South 447 514 26,000 1,587 Climbing Boston Center
Sun 03:26:36 PM 42.1972 -73.8325 159° South 457 526 27,600 976 Climbing Boston Center
Sun 03:27:39 PM 42.0806 -73.7683 158° South 457 526 28,000 194 Climbing Boston Center
Sun 03:28:40 PM 41.9631 -73.7069 159° South 457 526 28,000  Level Boston Center
Sun 03:29:43 PM 41.8464 -73.6436 158° South 455 524 28,000  Level Boston Center
Sun 03:30:44 PM 41.7469 -73.5494 145° Southeast 460 529 28,000  Level Boston Center
Sun 03:31:44 PM 41.6903 -73.3561 111° Southeast 470 541 28,000  Level Boston Center
Sun 03:32:47 PM 41.6003 -73.2803 148° Southeast 398 458 28,000  Level Boston Center
Sun 03:33:49 PM 41.5214 -73.3367 208° Southwest 311 358 28,000  Level Boston Center
Sun 03:34:49 PM 41.4506 -73.4089 217° Southwest 320 368 28,000  Level Boston Center
Sun 03:35:52 PM 41.3728 -73.4872 217° Southwest 348 400 28,000  Level Boston Center
Sun 03:36:53 PM 41.2919 -73.5703 218° Southwest 366 421 28,000  Level Boston Center
Sun 03:37:54 PM 41.2267 -73.6708 229° Southwest 364 419 28,000  Level Boston Center
Sun 03:38:57 PM 41.1653 -73.7744 232° Southwest 361 415 28,000  Level Boston Center
Sun 03:39:57 PM 41.0917 -73.8967 231° Southwest 357 411 28,000  Level Boston Center
Sun 03:41:01 PM 41.0303 -74.0008 232° Southwest 360 414 28,000  Level Boston Center
Sun 03:42:01 PM 40.9686 -74.1042 232° Southwest 360 414 28,000  Level Boston Center
Sun 03:43:02 PM 40.9072 -74.2075 232° Southwest 359 413 28,000  Level Boston Center
Sun 03:44:04 PM 40.8353 -74.3228 231° Southwest 365 420 28,000  Level New York Center
Sun 03:45:04 PM 40.7736 -74.4292 233° Southwest 365 420 28,000  Level New York Center
Sun 03:46:04 PM 40.7078 -74.5353 231° Southwest 365 420 28,000  Level New York Center
Sun 03:47:04 PM 40.6417 -74.6464 232° Southwest 372 428 28,000  Level New York Center
Sun 03:48:04 PM 40.5736 -74.7547 230° Southwest 382 440 28,000  Level New York Center
Sun 03:49:04 PM 40.5014 -74.8569 227° Southwest 388 447 28,000  Level New York Center
Sun 03:50:04 PM 40.4311 -74.9592 228° Southwest 388 447 28,000  Level New York Center
Sun 03:51:04 PM 40.3608 -75.0583 227° Southwest 388 447 28,000  Level New York Center
Sun 03:52:04 PM 40.2883 -75.1572 226° Southwest 388 447 28,000  Level New York Center
Sun 03:53:04 PM 40.2178 -75.2586 228° Southwest 378 435 28,000  Level New York Center
Sun 03:54:04 PM 40.1494 -75.3575 228° Southwest 378 435 28,000  Level New York Center
Sun 03:55:04 PM 40.0767 -75.4558 226° Southwest 378 435 28,000  Level New York Center
Sun 03:56:04 PM 40.0061 -75.5539 227° Southwest 378 435 28,000  Level New York Center
Sun 03:57:04 PM 39.9442 -75.6419 227° Southwest 378 435 28,000  Level New York Center
Sun 03:58:04 PM 39.8794 -75.7428 230° Southwest 378 435 28,000  Level New York Center
Sun 03:59:04 PM 39.8106 -75.8461 229° Southwest 373 429 28,000  Level New York Center
Sun 04:00:04 PM 39.7453 -75.9522 231° Southwest 373 429 28,000  Level New York Center
Sun 04:01:04 PM 39.6822 -76.0581 232° Southwest 373 429 28,000  Level New York Center
Sun 04:03:22 PM 39.5178 -76.3072 229° Southwest 379 436 28,000  Level Washington Center
Sun 04:04:24 PM 39.4503 -76.4086 229° Southwest 379 436 28,000  Level Washington Center
Sun 04:05:24 PM 39.3808 -76.5153 230° Southwest 379 436 28,000  Level Washington Center
Sun 04:06:24 PM 39.3156 -76.6189 231° Southwest 379 436 28,000  Level Washington Center
Sun 04:07:22 PM 39.2564 -76.7094 230° Southwest 374 430 28,000  Level Washington Center
Sun 04:08:22 PM 39.1928 -76.8128 232° Southwest 374 430 28,000  Level Washington Center
Sun 04:09:23 PM 39.1269 -76.9133 230° Southwest 374 430 28,000  Level Washington Center
Sun 04:10:22 PM 39.0592 -77.0164 230° Southwest 374 430 28,000  Level Washington Center
Sun 04:11:23 PM 38.9831 -77.1058 222° Southwest 374 430 28,000  Level Washington Center
Sun 04:12:23 PM 38.9006 -77.1975 221° Southwest 379 436 28,000  Level Washington Center
Sun 04:13:24 PM 38.8203 -77.2836 220° Southwest 384 442 28,000  Level Washington Center
Sun 04:14:24 PM 38.7397 -77.3694 220° Southwest 384 442 28,000  Level Washington Center
Sun 04:15:22 PM 38.6592 -77.4581 221° Southwest 384 442 28,000  Level Washington Center
Sun 04:16:22 PM 38.5786 -77.5464 221° Southwest 384 442 28,000  Level Washington Center
Sun 04:17:22 PM 38.5000 -77.6344 221° Southwest 384 442 28,000  Level Washington Center
Sun 04:18:23 PM 38.4214 -77.7169 219° Southwest 384 442 28,000  Level Washington Center
Sun 04:19:24 PM 38.3428 -77.7994 219° Southwest 384 442 28,000  Level Washington Center
Sun 04:20:22 PM 38.2703 -77.8794 221° Southwest 367 422 28,000  Level Washington Center
Sun 04:21:23 PM 38.1914 -77.9642 220° Southwest 356 410 28,000  Level Washington Center
Sun 04:22:23 PM 38.1147 -78.0436 219° Southwest 351 404 28,000  Level Washington Center
Sun 04:23:23 PM 38.0422 -78.1231 221° Southwest 351 404 28,000  Level Washington Center
Sun 04:24:24 PM 37.9800 -78.2050 226° Southwest 344 396 28,000  Level Washington Center
Sun 04:25:25 PM 37.9239 -78.2875 229° Southwest 338 389 28,000  Level Washington Center
Sun 04:26:22 PM 37.8614 -78.3772 229° Southwest 343 395 28,000  Level Washington Center
Sun 04:27:23 PM 37.7967 -78.4694 228° Southwest 348 400 28,000  Level Washington Center
Sun 04:28:24 PM 37.7339 -78.5617 229° Southwest 348 400 28,000  Level Washington Center
Sun 04:29:22 PM 37.6628 -78.6611 228° Southwest 348 400 28,000  Level Washington Center
Sun 04:30:23 PM 37.5997 -78.7503 228° Southwest 348 400 28,000  Level Washington Center
Sun 04:31:23 PM 37.5369 -78.8419 229° Southwest 348 400 28,000  Level Washington Center
Sun 04:32:25 PM 37.4719 -78.9308 227° Southwest 348 400 28,000  Level Washington Center
Sun 04:33:22 PM 37.4067 -79.0222 228° Southwest 353 406 28,000  Level Washington Center
Sun 04:34:23 PM 37.3458 -79.1031 227° Southwest 353 406 28,000  Level Washington Center
Sun 04:35:24 PM 37.2828 -79.1942 229° Southwest 353 406 28,000  Level Washington Center
Sun 04:36:22 PM 37.2072 -79.2739 220° Southwest 358 412 28,000  Level Washington Center
Sun 04:37:22 PM 37.1239 -79.3431 214° Southwest 358 412 28,000  Level Washington Center
Sun 04:38:23 PM 37.0403 -79.4117 213° Southwest 363 418 28,000  Level Washington Center
Sun 04:39:22 PM 36.9481 -79.4903 214° Southwest 368 423 28,000  Level Washington Center
Sun 04:40:22 PM 36.8644 -79.5589 213° Southwest 368 423 28,000  Level Washington Center
Sun 04:41:23 PM 36.7808 -79.6244 212° Southwest 368 423 28,000  Level Washington Center
Sun 04:42:24 PM 36.6950 -79.6978 214° Southwest 368 423 28,000  Level Washington Center
Sun 04:43:25 PM 36.6092 -79.7656 212° Southwest 368 423 28,000  Level Washington Center
Sun 04:44:07 PM 36.5444 -79.8164 212° Southwest 363 418 28,000  Level Atlanta Center
Sun 04:45:07 PM 36.4592 -79.8828 212° Southwest 356 410 28,000 -200 Level Atlanta Center
Sun 04:46:07 PM 36.3842 -79.9461 214° Southwest 356 410 27,600 -1,000 Descending Atlanta Center
Sun 04:47:07 PM 36.3008 -80.0122 213° Southwest 356 410 26,000 -1,150 Descending Atlanta Center
Sun 04:48:07 PM 36.2219 -80.0831 216° Southwest 356 410 25,300 -1,450 Descending Atlanta Center
Sun 04:49:07 PM 36.1428 -80.1511 215° Southwest 356 410 23,100 -1,150 Descending Atlanta Center
Sun 04:50:07 PM 36.0594 -80.2219 215° Southwest 345 397 23,000 -1,050 Descending Atlanta Center
Sun 04:51:07 PM 35.9844 -80.2897 216° Southwest 339 390 21,000 -1,800 Descending Atlanta Center
Sun 04:52:07 PM 35.9172 -80.3464 214° Southwest 339 390 19,400 -1,865 Descending Atlanta Center
Sun 04:52:21 PM 35.8947 -80.3656 215° Southwest 310 357 18,700 -2,000 Descending Atlanta Center
Sun 04:53:16 PM 35.8319 -80.4222 216° Southwest 293 337 17,100 -1,019 Descending Atlanta Center
Sun 04:54:07 PM 35.7808 -80.4603 211° Southwest 305 351 16,900 -97 Descending Atlanta Center
Sun 04:54:18 PM 35.7625 -80.4789 219° Southwest 296 341 17,000 -900 Climbing Atlanta Center
Sun 04:55:07 PM 35.7117 -80.5194 213° Southwest 289 333 16,000 -1,000 Descending Atlanta Center
Sun 04:55:18 PM 35.7017 -80.5328 227° Southwest 275 316 16,000 -200 Level Atlanta Center
Sun 04:56:07 PM 35.6442 -80.5736 210° Southwest 289 333 15,800 -536 Descending Atlanta Center
Sun 04:56:14 PM 35.6425 -80.5814 255° West 276 318 15,500 -1,900 Descending Atlanta Center
Sun 04:57:07 PM 35.5811 -80.6272 211° Southwest 284 327 13,900 -1,881 Descending Atlanta Center
Sun 04:57:21 PM 35.5669 -80.6431 222° Southwest 276 318 13,400 -900 Descending Atlanta Center
Sun 04:58:07 PM 35.5200 -80.6783 211° Southwest 278 320 13,000 -393 Descending Atlanta Center
Sun 04:58:22 PM 35.5058 -80.6967 226° Southwest 272 313 13,000  Level Atlanta Center
Sun 04:59:07 PM 35.4567 -80.7294 209° Southwest 278 320 13,000  Level Atlanta Center
Sun 04:59:23 PM 35.4444 -80.7450 226° Southwest 270 311 13,000 -1,100 Level Atlanta Center
Sun 05:00:07 PM 35.3956 -80.7803 210° Southwest 278 320 11,900 -1,452 Descending Atlanta Center
Sun 05:00:25 PM 35.3792 -80.7961 218° Southwest 269 310 11,500 -1,519 Descending Atlanta Center
Sun 05:01:26 PM 35.3156 -80.8419 210° Southwest 258 297 9,900 -1,230 Descending Atlanta Center
Sun 05:02:27 PM 35.2447 -80.8369 177° South 249 287 9,000 -879 Descending Atlanta Center
Sun 05:03:22 PM 35.1819 -80.8344 178° South 232 267 8,200 -1,190 Descending Atlanta Center
Sun 05:04:23 PM 35.1150 -80.8269 175° South 238 274 6,700 -1,359 Descending Atlanta Center
Sun 05:05:30 PM 35.0461 -80.8219 177° South 230 265 5,300 -1,266 Descending Atlanta Center
Sun 05:06:31 PM 34.9792 -80.8144 175° South 224 258 4,000 -639 Descending Atlanta Center
Sun 05:07:32 PM 34.9511 -80.8686 238° Southwest 200 230 4,000  Level Atlanta Center
Sun 05:08:34 PM 34.9794 -80.9131 308° West 181 208 4,000  Level Atlanta Center
Sun 05:09:35 PM 35.0297 -80.9239 350° North 182 209 4,000 -393 Level Atlanta Center
Sun 05:10:36 PM 35.0842 -80.9294 355° North 181 208 3,200 -879 Descending Atlanta Center
Sun 05:11:31 PM 35.1303 -80.9303 359° North 176 203 2,300 -879 Descending Atlanta Center
Sun 05:12:32 PM 35.1700 -80.9339 356° North 145 167 1,500 -787 Descending Atlanta Center
Sun 05:14:00 PM 35.2000 -80.9333 335° Northwest  Level FlightAware Approximate
Sun 05:21:00 PM 35.2137 -80.9491 335° Northwest  Level Estimated

Login

Don't have an account? Register now (free) for customized features, flight alerts, and more!